sensor_id;sensor_type;location;lat;lon;timestamp;P1;durP1;ratioP1;P2;durP2;ratioP2
289;SDS011;13193;48.874;9.086;2022-09-29T00:01:23;11.47;;;4.70;;
289;SDS011;13193;48.874;9.086;2022-09-29T00:03:49;10.23;;;5.00;;
289;SDS011;13193;48.874;9.086;2022-09-29T00:06:15;12.67;;;5.33;;
289;SDS011;13193;48.874;9.086;2022-09-29T00:08:42;10.30;;;5.10;;
289;SDS011;13193;48.874;9.086;2022-09-29T00:11:09;8.17;;;3.93;;
289;SDS011;13193;48.874;9.086;2022-09-29T00:13:39;14.20;;;5.30;;
289;SDS011;13193;48.874;9.086;2022-09-29T00:16:05;11.33;;;4.53;;
289;SDS011;13193;48.874;9.086;2022-09-29T00:18:31;9.83;;;4.33;;
289;SDS011;13193;48.874;9.086;2022-09-29T00:20:59;8.77;;;4.57;;
289;SDS011;13193;48.874;9.086;2022-09-29T00:23:35;8.80;;;4.00;;
289;SDS011;13193;48.874;9.086;2022-09-29T00:26:03;9.73;;;4.17;;
289;SDS011;13193;48.874;9.086;2022-09-29T00:28:48;10.37;;;4.20;;
289;SDS011;13193;48.874;9.086;2022-09-29T00:31:19;11.30;;;5.63;;
289;SDS011;13193;48.874;9.086;2022-09-29T00:33:45;14.83;;;5.60;;
289;SDS011;13193;48.874;9.086;2022-09-29T00:36:13;9.87;;;4.90;;
289;SDS011;13193;48.874;9.086;2022-09-29T00:38:40;8.67;;;4.10;;
289;SDS011;13193;48.874;9.086;2022-09-29T00:41:07;14.03;;;5.80;;
289;SDS011;13193;48.874;9.086;2022-09-29T00:46:12;11.33;;;5.07;;
289;SDS011;13193;48.874;9.086;2022-09-29T00:48:40;14.60;;;4.70;;
289;SDS011;13193;48.874;9.086;2022-09-29T00:51:05;9.97;;;5.03;;
289;SDS011;13193;48.874;9.086;2022-09-29T00:53:32;17.60;;;4.40;;
289;SDS011;13193;48.874;9.086;2022-09-29T00:56:00;6.83;;;3.53;;
289;SDS011;13193;48.874;9.086;2022-09-29T01:01:00;9.37;;;4.60;;
289;SDS011;13193;48.874;9.086;2022-09-29T01:03:30;14.30;;;4.67;;
289;SDS011;13193;48.874;9.086;2022-09-29T01:06:12;10.23;;;5.27;;
289;SDS011;13193;48.874;9.086;2022-09-29T01:08:56;8.97;;;4.20;;
289;SDS011;13193;48.874;9.086;2022-09-29T01:11:34;11.80;;;5.00;;
289;SDS011;13193;48.874;9.086;2022-09-29T01:14:00;10.70;;;4.43;;
289;SDS011;13193;48.874;9.086;2022-09-29T01:16:30;11.60;;;4.50;;
289;SDS011;13193;48.874;9.086;2022-09-29T01:18:58;14.07;;;4.83;;
289;SDS011;13193;48.874;9.086;2022-09-29T01:38:33;9.30;;;4.70;;
289;SDS011;13193;48.874;9.086;2022-09-29T01:44:39;9.03;;;4.67;;
289;SDS011;13193;48.874;9.086;2022-09-29T01:47:15;8.13;;;4.60;;
289;SDS011;13193;48.874;9.086;2022-09-29T01:49:53;13.10;;;5.13;;
289;SDS011;13193;48.874;9.086;2022-09-29T01:52:32;9.90;;;4.50;;
289;SDS011;13193;48.874;9.086;2022-09-29T01:55:16;14.80;;;4.43;;
289;SDS011;13193;48.874;9.086;2022-09-29T01:57:50;19.60;;;5.30;;
289;SDS011;13193;48.874;9.086;2022-09-29T02:00:21;16.17;;;4.87;;
289;SDS011;13193;48.874;9.086;2022-09-29T02:02:55;12.67;;;4.97;;
289;SDS011;13193;48.874;9.086;2022-09-29T02:05:35;12.30;;;4.93;;
289;SDS011;13193;48.874;9.086;2022-09-29T02:08:13;19.90;;;6.20;;
289;SDS011;13193;48.874;9.086;2022-09-29T02:10:48;14.10;;;5.67;;
289;SDS011;13193;48.874;9.086;2022-09-29T02:13:21;13.20;;;5.87;;
289;SDS011;13193;48.874;9.086;2022-09-29T02:15:48;15.30;;;5.97;;
289;SDS011;13193;48.874;9.086;2022-09-29T02:18:22;16.67;;;6.70;;
289;SDS011;13193;48.874;9.086;2022-09-29T02:20:52;12.03;;;5.60;;
289;SDS011;13193;48.874;9.086;2022-09-29T02:23:18;11.50;;;4.87;;
289;SDS011;13193;48.874;9.086;2022-09-29T02:25:44;8.70;;;4.90;;
289;SDS011;13193;48.874;9.086;2022-09-29T02:28:11;12.17;;;5.07;;
289;SDS011;13193;48.874;9.086;2022-09-29T02:30:37;11.50;;;5.47;;
289;SDS011;13193;48.874;9.086;2022-09-29T02:33:03;7.17;;;4.50;;
289;SDS011;13193;48.874;9.086;2022-09-29T02:35:40;17.30;;;4.93;;
289;SDS011;13193;48.874;9.086;2022-09-29T02:54:48;14.63;;;4.60;;
289;SDS011;13193;48.874;9.086;2022-09-29T02:57:30;13.70;;;5.43;;
289;SDS011;13193;48.874;9.086;2022-09-29T03:00:17;10.70;;;5.90;;
289;SDS011;13193;48.874;9.086;2022-09-29T03:02:43;8.70;;;4.80;;
289;SDS011;13193;48.874;9.086;2022-09-29T03:05:10;8.23;;;3.60;;
289;SDS011;13193;48.874;9.086;2022-09-29T03:07:39;12.47;;;4.07;;
289;SDS011;13193;48.874;9.086;2022-09-29T03:10:05;10.30;;;4.50;;
289;SDS011;13193;48.874;9.086;2022-09-29T03:12:32;7.90;;;3.60;;
289;SDS011;13193;48.874;9.086;2022-09-29T03:14:58;7.20;;;3.83;;
289;SDS011;13193;48.874;9.086;2022-09-29T03:17:24;16.70;;;3.83;;
289;SDS011;13193;48.874;9.086;2022-09-29T03:19:50;7.57;;;3.80;;
289;SDS011;13193;48.874;9.086;2022-09-29T03:22:15;14.17;;;4.70;;
289;SDS011;13193;48.874;9.086;2022-09-29T03:24:42;6.90;;;3.50;;
289;SDS011;13193;48.874;9.086;2022-09-29T03:27:08;15.43;;;3.60;;
289;SDS011;13193;48.874;9.086;2022-09-29T03:29:34;7.13;;;3.70;;
289;SDS011;13193;48.874;9.086;2022-09-29T03:32:01;9.47;;;5.07;;
289;SDS011;13193;48.874;9.086;2022-09-29T03:34:27;20.57;;;5.10;;
289;SDS011;13193;48.874;9.086;2022-09-29T03:36:52;12.47;;;4.47;;
289;SDS011;13193;48.874;9.086;2022-09-29T03:39:18;9.67;;;4.47;;
289;SDS011;13193;48.874;9.086;2022-09-29T03:41:44;10.17;;;5.10;;
289;SDS011;13193;48.874;9.086;2022-09-29T03:44:10;9.77;;;5.27;;
289;SDS011;13193;48.874;9.086;2022-09-29T03:46:36;14.80;;;4.40;;
289;SDS011;13193;48.874;9.086;2022-09-29T03:49:01;18.73;;;5.67;;
289;SDS011;13193;48.874;9.086;2022-09-29T03:51:27;8.27;;;4.87;;
289;SDS011;13193;48.874;9.086;2022-09-29T03:53:53;12.17;;;4.97;;
289;SDS011;13193;48.874;9.086;2022-09-29T03:56:18;17.73;;;4.80;;
289;SDS011;13193;48.874;9.086;2022-09-29T03:58:44;11.30;;;5.40;;
289;SDS011;13193;48.874;9.086;2022-09-29T04:01:10;9.80;;;4.67;;
289;SDS011;13193;48.874;9.086;2022-09-29T04:03:35;10.37;;;5.33;;
289;SDS011;13193;48.874;9.086;2022-09-29T04:06:01;10.20;;;5.07;;
289;SDS011;13193;48.874;9.086;2022-09-29T04:08:26;10.50;;;5.20;;
289;SDS011;13193;48.874;9.086;2022-09-29T04:10:52;8.77;;;3.90;;
289;SDS011;13193;48.874;9.086;2022-09-29T04:13:18;9.73;;;4.93;;
289;SDS011;13193;48.874;9.086;2022-09-29T04:15:45;13.10;;;5.80;;
289;SDS011;13193;48.874;9.086;2022-09-29T04:18:11;11.90;;;6.37;;
289;SDS011;13193;48.874;9.086;2022-09-29T04:20:37;11.00;;;4.67;;
289;SDS011;13193;48.874;9.086;2022-09-29T04:23:03;12.50;;;4.97;;
289;SDS011;13193;48.874;9.086;2022-09-29T04:25:29;7.90;;;4.00;;
289;SDS011;13193;48.874;9.086;2022-09-29T04:27:54;10.70;;;4.70;;
289;SDS011;13193;48.874;9.086;2022-09-29T04:30:20;10.00;;;5.43;;
289;SDS011;13193;48.874;9.086;2022-09-29T04:32:46;9.20;;;5.03;;
289;SDS011;13193;48.874;9.086;2022-09-29T04:35:11;13.57;;;5.93;;
289;SDS011;13193;48.874;9.086;2022-09-29T04:37:37;7.80;;;4.37;;
289;SDS011;13193;48.874;9.086;2022-09-29T04:40:03;13.90;;;5.70;;
289;SDS011;13193;48.874;9.086;2022-09-29T04:42:29;7.70;;;4.63;;
289;SDS011;13193;48.874;9.086;2022-09-29T04:44:54;10.80;;;5.07;;
289;SDS011;13193;48.874;9.086;2022-09-29T04:47:20;9.33;;;4.47;;
289;SDS011;13193;48.874;9.086;2022-09-29T04:49:46;8.80;;;4.93;;
289;SDS011;13193;48.874;9.086;2022-09-29T04:52:11;10.13;;;5.70;;
289;SDS011;13193;48.874;9.086;2022-09-29T04:54:38;14.07;;;6.00;;
289;SDS011;13193;48.874;9.086;2022-09-29T04:57:04;13.00;;;6.27;;
289;SDS011;13193;48.874;9.086;2022-09-29T04:59:30;16.03;;;6.57;;
289;SDS011;13193;48.874;9.086;2022-09-29T05:01:56;14.73;;;6.00;;
289;SDS011;13193;48.874;9.086;2022-09-29T05:04:22;17.77;;;6.93;;
289;SDS011;13193;48.874;9.086;2022-09-29T05:06:48;17.10;;;6.83;;
289;SDS011;13193;48.874;9.086;2022-09-29T05:09:13;15.70;;;5.93;;
289;SDS011;13193;48.874;9.086;2022-09-29T05:11:39;22.03;;;5.97;;
289;SDS011;13193;48.874;9.086;2022-09-29T05:14:05;18.33;;;6.60;;
289;SDS011;13193;48.874;9.086;2022-09-29T05:16:30;11.67;;;5.43;;
289;SDS011;13193;48.874;9.086;2022-09-29T05:18:56;13.40;;;6.27;;
289;SDS011;13193;48.874;9.086;2022-09-29T05:21:22;12.90;;;6.33;;
289;SDS011;13193;48.874;9.086;2022-09-29T05:23:48;12.03;;;5.63;;
289;SDS011;13193;48.874;9.086;2022-09-29T05:26:13;11.83;;;6.10;;
289;SDS011;13193;48.874;9.086;2022-09-29T05:28:43;15.20;;;5.43;;
289;SDS011;13193;48.874;9.086;2022-09-29T05:31:11;10.97;;;5.60;;
289;SDS011;13193;48.874;9.086;2022-09-29T05:33:37;20.87;;;8.50;;
289;SDS011;13193;48.874;9.086;2022-09-29T05:36:03;26.83;;;6.50;;
289;SDS011;13193;48.874;9.086;2022-09-29T05:38:31;12.00;;;6.03;;
289;SDS011;13193;48.874;9.086;2022-09-29T05:40:57;12.40;;;6.23;;
289;SDS011;13193;48.874;9.086;2022-09-29T05:43:22;14.10;;;7.20;;
289;SDS011;13193;48.874;9.086;2022-09-29T05:45:49;17.10;;;6.60;;
289;SDS011;13193;48.874;9.086;2022-09-29T05:48:15;23.00;;;7.40;;
289;SDS011;13193;48.874;9.086;2022-09-29T05:50:42;20.50;;;7.00;;
289;SDS011;13193;48.874;9.086;2022-09-29T05:53:08;13.60;;;6.17;;
289;SDS011;13193;48.874;9.086;2022-09-29T05:55:37;15.53;;;7.30;;
289;SDS011;13193;48.874;9.086;2022-09-29T05:58:03;17.90;;;7.03;;
289;SDS011;13193;48.874;9.086;2022-09-29T06:00:30;15.63;;;7.37;;
289;SDS011;13193;48.874;9.086;2022-09-29T06:02:57;20.67;;;8.07;;
289;SDS011;13193;48.874;9.086;2022-09-29T06:05:24;12.83;;;7.87;;
289;SDS011;13193;48.874;9.086;2022-09-29T06:07:50;19.43;;;8.67;;
289;SDS011;13193;48.874;9.086;2022-09-29T06:10:16;28.50;;;7.47;;
289;SDS011;13193;48.874;9.086;2022-09-29T06:12:42;26.83;;;9.07;;
289;SDS011;13193;48.874;9.086;2022-09-29T06:15:09;15.10;;;7.27;;
289;SDS011;13193;48.874;9.086;2022-09-29T06:17:35;19.07;;;8.90;;
289;SDS011;13193;48.874;9.086;2022-09-29T06:20:01;17.83;;;9.00;;
289;SDS011;13193;48.874;9.086;2022-09-29T06:22:28;20.30;;;9.33;;
289;SDS011;13193;48.874;9.086;2022-09-29T06:24:54;15.90;;;8.33;;
289;SDS011;13193;48.874;9.086;2022-09-29T06:27:20;28.43;;;12.17;;
289;SDS011;13193;48.874;9.086;2022-09-29T06:29:47;21.23;;;10.97;;
289;SDS011;13193;48.874;9.086;2022-09-29T06:32:13;19.93;;;11.40;;
289;SDS011;13193;48.874;9.086;2022-09-29T06:34:38;24.03;;;10.37;;
289;SDS011;13193;48.874;9.086;2022-09-29T06:37:24;13.60;;;6.87;;
289;SDS011;13193;48.874;9.086;2022-09-29T06:39:59;22.27;;;8.47;;
289;SDS011;13193;48.874;9.086;2022-09-29T06:42:25;19.13;;;9.03;;
289;SDS011;13193;48.874;9.086;2022-09-29T06:44:51;20.97;;;9.30;;
289;SDS011;13193;48.874;9.086;2022-09-29T06:47:17;16.13;;;7.60;;
289;SDS011;13193;48.874;9.086;2022-09-29T06:49:42;23.63;;;7.40;;
289;SDS011;13193;48.874;9.086;2022-09-29T06:52:08;11.50;;;5.97;;
289;SDS011;13193;48.874;9.086;2022-09-29T06:54:34;16.50;;;6.93;;
289;SDS011;13193;48.874;9.086;2022-09-29T06:56:59;22.03;;;8.10;;
289;SDS011;13193;48.874;9.086;2022-09-29T06:59:25;16.90;;;6.87;;
289;SDS011;13193;48.874;9.086;2022-09-29T07:01:51;14.50;;;6.37;;
289;SDS011;13193;48.874;9.086;2022-09-29T07:04:16;19.53;;;6.47;;
289;SDS011;13193;48.874;9.086;2022-09-29T07:06:43;10.70;;;5.90;;
289;SDS011;13193;48.874;9.086;2022-09-29T07:09:09;10.07;;;5.23;;
289;SDS011;13193;48.874;9.086;2022-09-29T07:11:40;11.80;;;5.40;;
289;SDS011;13193;48.874;9.086;2022-09-29T07:14:09;19.57;;;5.23;;
289;SDS011;13193;48.874;9.086;2022-09-29T07:16:34;15.10;;;6.50;;
289;SDS011;13193;48.874;9.086;2022-09-29T07:19:00;12.97;;;5.10;;
289;SDS011;13193;48.874;9.086;2022-09-29T07:21:25;20.43;;;6.17;;
289;SDS011;13193;48.874;9.086;2022-09-29T07:23:51;10.83;;;5.00;;
289;SDS011;13193;48.874;9.086;2022-09-29T07:26:17;8.63;;;4.30;;
289;SDS011;13193;48.874;9.086;2022-09-29T07:28:43;14.53;;;5.80;;
289;SDS011;13193;48.874;9.086;2022-09-29T07:31:10;10.97;;;5.70;;
289;SDS011;13193;48.874;9.086;2022-09-29T07:33:41;11.90;;;6.47;;
289;SDS011;13193;48.874;9.086;2022-09-29T07:36:11;16.60;;;6.97;;
289;SDS011;13193;48.874;9.086;2022-09-29T07:38:38;14.87;;;6.70;;
289;SDS011;13193;48.874;9.086;2022-09-29T07:41:05;14.53;;;5.80;;
289;SDS011;13193;48.874;9.086;2022-09-29T07:43:32;14.17;;;6.60;;
289;SDS011;13193;48.874;9.086;2022-09-29T07:45:58;10.83;;;5.70;;
289;SDS011;13193;48.874;9.086;2022-09-29T07:48:24;14.60;;;7.57;;
289;SDS011;13193;48.874;9.086;2022-09-29T07:50:50;11.77;;;6.43;;
289;SDS011;13193;48.874;9.086;2022-09-29T07:53:16;14.93;;;6.63;;
289;SDS011;13193;48.874;9.086;2022-09-29T07:55:42;15.00;;;7.60;;
289;SDS011;13193;48.874;9.086;2022-09-29T07:58:08;11.80;;;6.37;;
289;SDS011;13193;48.874;9.086;2022-09-29T08:00:34;12.30;;;6.37;;
289;SDS011;13193;48.874;9.086;2022-09-29T08:03:03;19.13;;;7.50;;
289;SDS011;13193;48.874;9.086;2022-09-29T08:05:31;10.57;;;6.77;;
289;SDS011;13193;48.874;9.086;2022-09-29T08:08:01;14.07;;;7.17;;
289;SDS011;13193;48.874;9.086;2022-09-29T08:10:28;14.10;;;7.77;;
289;SDS011;13193;48.874;9.086;2022-09-29T08:12:56;18.20;;;5.13;;
289;SDS011;13193;48.874;9.086;2022-09-29T08:15:22;14.37;;;8.40;;
289;SDS011;13193;48.874;9.086;2022-09-29T08:17:51;9.73;;;5.80;;
289;SDS011;13193;48.874;9.086;2022-09-29T08:20:18;13.83;;;6.60;;
289;SDS011;13193;48.874;9.086;2022-09-29T08:22:44;12.93;;;5.90;;
289;SDS011;13193;48.874;9.086;2022-09-29T08:25:10;11.60;;;6.83;;
289;SDS011;13193;48.874;9.086;2022-09-29T08:27:36;17.60;;;7.10;;
289;SDS011;13193;48.874;9.086;2022-09-29T08:30:02;11.27;;;6.73;;
289;SDS011;13193;48.874;9.086;2022-09-29T08:32:28;18.50;;;7.03;;
289;SDS011;13193;48.874;9.086;2022-09-29T08:34:53;10.83;;;6.37;;
289;SDS011;13193;48.874;9.086;2022-09-29T08:37:19;16.27;;;6.40;;
289;SDS011;13193;48.874;9.086;2022-09-29T08:39:44;8.40;;;5.20;;
289;SDS011;13193;48.874;9.086;2022-09-29T08:42:13;11.10;;;5.30;;
289;SDS011;13193;48.874;9.086;2022-09-29T08:44:52;13.30;;;5.13;;
289;SDS011;13193;48.874;9.086;2022-09-29T08:47:27;15.13;;;6.13;;
289;SDS011;13193;48.874;9.086;2022-09-29T08:50:05;15.20;;;4.73;;
289;SDS011;13193;48.874;9.086;2022-09-29T08:52:39;11.20;;;5.93;;
289;SDS011;13193;48.874;9.086;2022-09-29T08:57:43;12.53;;;5.00;;
289;SDS011;13193;48.874;9.086;2022-09-29T09:00:12;13.53;;;4.90;;
289;SDS011;13193;48.874;9.086;2022-09-29T09:13:51;8.90;;;4.60;;
289;SDS011;13193;48.874;9.086;2022-09-29T09:19:45;9.87;;;5.13;;
289;SDS011;13193;48.874;9.086;2022-09-29T09:27:50;6.63;;;3.40;;
289;SDS011;13193;48.874;9.086;2022-09-29T09:30:34;9.20;;;3.67;;
289;SDS011;13193;48.874;9.086;2022-09-29T09:33:05;11.30;;;5.40;;
289;SDS011;13193;48.874;9.086;2022-09-29T09:38:14;6.67;;;3.80;;
289;SDS011;13193;48.874;9.086;2022-09-29T09:40:47;5.20;;;2.80;;
289;SDS011;13193;48.874;9.086;2022-09-29T09:45:51;4.70;;;2.87;;
289;SDS011;13193;48.874;9.086;2022-09-29T09:48:28;5.63;;;4.10;;
289;SDS011;13193;48.874;9.086;2022-09-29T09:50:58;9.60;;;3.30;;
289;SDS011;13193;48.874;9.086;2022-09-29T09:53:40;7.03;;;3.70;;
289;SDS011;13193;48.874;9.086;2022-09-29T09:59:20;4.20;;;2.60;;
289;SDS011;13193;48.874;9.086;2022-09-29T10:02:02;7.40;;;3.60;;
289;SDS011;13193;48.874;9.086;2022-09-29T10:04:28;6.57;;;3.70;;
289;SDS011;13193;48.874;9.086;2022-09-29T10:06:55;8.97;;;3.70;;
289;SDS011;13193;48.874;9.086;2022-09-29T10:09:21;8.57;;;3.37;;
289;SDS011;13193;48.874;9.086;2022-09-29T10:11:46;5.07;;;3.40;;
289;SDS011;13193;48.874;9.086;2022-09-29T10:14:18;12.03;;;4.20;;
289;SDS011;13193;48.874;9.086;2022-09-29T10:16:52;7.10;;;2.40;;
289;SDS011;13193;48.874;9.086;2022-09-29T10:22:26;9.83;;;4.03;;
289;SDS011;13193;48.874;9.086;2022-09-29T10:24:57;6.60;;;3.07;;
289;SDS011;13193;48.874;9.086;2022-09-29T10:27:43;8.90;;;3.90;;
289;SDS011;13193;48.874;9.086;2022-09-29T10:30:21;8.80;;;3.87;;
289;SDS011;13193;48.874;9.086;2022-09-29T10:32:51;12.00;;;4.73;;
289;SDS011;13193;48.874;9.086;2022-09-29T10:35:24;11.53;;;3.60;;
289;SDS011;13193;48.874;9.086;2022-09-29T10:38:02;7.63;;;3.50;;
289;SDS011;13193;48.874;9.086;2022-09-29T10:40:30;12.50;;;2.60;;
289;SDS011;13193;48.874;9.086;2022-09-29T10:42:56;8.03;;;3.47;;
289;SDS011;13193;48.874;9.086;2022-09-29T10:45:28;15.23;;;3.70;;
289;SDS011;13193;48.874;9.086;2022-09-29T10:56:14;19.27;;;7.83;;
289;SDS011;13193;48.874;9.086;2022-09-29T10:58:43;14.90;;;3.60;;
289;SDS011;13193;48.874;9.086;2022-09-29T11:01:16;7.53;;;3.70;;
289;SDS011;13193;48.874;9.086;2022-09-29T11:03:53;6.40;;;3.63;;
289;SDS011;13193;48.874;9.086;2022-09-29T11:06:33;7.17;;;3.20;;
289;SDS011;13193;48.874;9.086;2022-09-29T11:09:24;8.93;;;3.80;;
289;SDS011;13193;48.874;9.086;2022-09-29T11:11:55;8.47;;;2.83;;
289;SDS011;13193;48.874;9.086;2022-09-29T11:14:27;10.50;;;2.73;;
289;SDS011;13193;48.874;9.086;2022-09-29T11:17:47;10.63;;;3.30;;
289;SDS011;13193;48.874;9.086;2022-09-29T11:19:59;8.37;;;3.33;;
289;SDS011;13193;48.874;9.086;2022-09-29T11:22:30;7.67;;;3.07;;
289;SDS011;13193;48.874;9.086;2022-09-29T11:25:13;10.67;;;3.40;;
289;SDS011;13193;48.874;9.086;2022-09-29T11:39:40;8.70;;;2.40;;
289;SDS011;13193;48.874;9.086;2022-09-29T11:44:59;13.83;;;3.07;;
289;SDS011;13193;48.874;9.086;2022-09-29T12:02:32;6.00;;;2.73;;
289;SDS011;13193;48.874;9.086;2022-09-29T12:04:54;5.93;;;2.40;;
289;SDS011;13193;48.874;9.086;2022-09-29T12:10:36;6.80;;;2.83;;
289;SDS011;13193;48.874;9.086;2022-09-29T12:13:21;5.67;;;1.97;;
289;SDS011;13193;48.874;9.086;2022-09-29T12:18:46;4.17;;;2.43;;
289;SDS011;13193;48.874;9.086;2022-09-29T12:21:16;5.40;;;2.33;;
289;SDS011;13193;48.874;9.086;2022-09-29T12:24:37;4.03;;;1.90;;
289;SDS011;13193;48.874;9.086;2022-09-29T12:27:09;4.07;;;2.03;;
289;SDS011;13193;48.874;9.086;2022-09-29T12:29:42;10.83;;;2.27;;
289;SDS011;13193;48.874;9.086;2022-09-29T12:32:15;3.77;;;1.40;;
289;SDS011;13193;48.874;9.086;2022-09-29T12:34:50;3.60;;;1.30;;
289;SDS011;13193;48.874;9.086;2022-09-29T12:37:24;3.63;;;1.37;;
289;SDS011;13193;48.874;9.086;2022-09-29T12:40:16;12.53;;;2.07;;
289;SDS011;13193;48.874;9.086;2022-09-29T12:47:58;3.80;;;1.80;;
289;SDS011;13193;48.874;9.086;2022-09-29T12:50:49;4.53;;;1.87;;
289;SDS011;13193;48.874;9.086;2022-09-29T12:56:43;5.27;;;1.70;;
289;SDS011;13193;48.874;9.086;2022-09-29T12:58:53;3.90;;;1.77;;
289;SDS011;13193;48.874;9.086;2022-09-29T13:01:27;5.70;;;1.83;;
289;SDS011;13193;48.874;9.086;2022-09-29T13:12:28;2.80;;;1.50;;
289;SDS011;13193;48.874;9.086;2022-09-29T13:15:25;7.03;;;1.77;;
289;SDS011;13193;48.874;9.086;2022-09-29T13:17:58;6.03;;;1.87;;
289;SDS011;13193;48.874;9.086;2022-09-29T13:26:03;4.40;;;1.20;;
289;SDS011;13193;48.874;9.086;2022-09-29T13:28:50;6.50;;;2.37;;
289;SDS011;13193;48.874;9.086;2022-09-29T13:31:22;7.33;;;1.77;;
289;SDS011;13193;48.874;9.086;2022-09-29T13:33:56;7.53;;;2.37;;
289;SDS011;13193;48.874;9.086;2022-09-29T13:36:25;2.70;;;1.67;;
289;SDS011;13193;48.874;9.086;2022-09-29T13:39:03;4.00;;;2.10;;
289;SDS011;13193;48.874;9.086;2022-09-29T13:44:04;10.03;;;2.47;;
289;SDS011;13193;48.874;9.086;2022-09-29T13:46:43;4.70;;;1.80;;
289;SDS011;13193;48.874;9.086;2022-09-29T13:59:29;4.90;;;1.40;;
289;SDS011;13193;48.874;9.086;2022-09-29T14:01:55;3.40;;;1.70;;
289;SDS011;13193;48.874;9.086;2022-09-29T14:07:09;7.23;;;1.73;;
289;SDS011;13193;48.874;9.086;2022-09-29T14:10:02;5.20;;;2.10;;
289;SDS011;13193;48.874;9.086;2022-09-29T14:12:50;7.20;;;2.87;;
289;SDS011;13193;48.874;9.086;2022-09-29T14:15:21;5.20;;;1.90;;
289;SDS011;13193;48.874;9.086;2022-09-29T14:17:54;6.23;;;2.50;;
289;SDS011;13193;48.874;9.086;2022-09-29T14:20:30;7.07;;;2.83;;
289;SDS011;13193;48.874;9.086;2022-09-29T14:22:58;6.73;;;2.77;;
289;SDS011;13193;48.874;9.086;2022-09-29T14:28:14;7.77;;;3.00;;
289;SDS011;13193;48.874;9.086;2022-09-29T14:30:49;15.17;;;3.47;;
289;SDS011;13193;48.874;9.086;2022-09-29T14:49:29;4.37;;;1.60;;
289;SDS011;13193;48.874;9.086;2022-09-29T14:55:10;8.70;;;3.57;;
289;SDS011;13193;48.874;9.086;2022-09-29T15:00:21;11.33;;;2.50;;
289;SDS011;13193;48.874;9.086;2022-09-29T15:02:54;4.30;;;1.73;;
289;SDS011;13193;48.874;9.086;2022-09-29T15:05:31;6.27;;;2.07;;
289;SDS011;13193;48.874;9.086;2022-09-29T15:07:58;6.37;;;2.10;;
289;SDS011;13193;48.874;9.086;2022-09-29T15:10:28;6.80;;;2.23;;
289;SDS011;13193;48.874;9.086;2022-09-29T15:13:19;3.20;;;2.20;;
289;SDS011;13193;48.874;9.086;2022-09-29T15:21:31;2.30;;;1.53;;
289;SDS011;13193;48.874;9.086;2022-09-29T15:26:45;10.20;;;1.73;;
289;SDS011;13193;48.874;9.086;2022-09-29T15:29:14;6.37;;;1.83;;
289;SDS011;13193;48.874;9.086;2022-09-29T15:31:43;5.17;;;1.60;;
289;SDS011;13193;48.874;9.086;2022-09-29T15:34:19;4.27;;;2.10;;
289;SDS011;13193;48.874;9.086;2022-09-29T15:36:51;9.97;;;2.17;;
289;SDS011;13193;48.874;9.086;2022-09-29T15:42:01;4.17;;;2.00;;
289;SDS011;13193;48.874;9.086;2022-09-29T15:44:37;2.97;;;1.77;;
289;SDS011;13193;48.874;9.086;2022-09-29T15:47:02;5.67;;;2.30;;
289;SDS011;13193;48.874;9.086;2022-09-29T15:49:28;3.53;;;2.03;;
289;SDS011;13193;48.874;9.086;2022-09-29T15:51:58;3.27;;;2.00;;
289;SDS011;13193;48.874;9.086;2022-09-29T15:54:29;5.80;;;2.07;;
289;SDS011;13193;48.874;9.086;2022-09-29T15:57:01;4.47;;;2.10;;
289;SDS011;13193;48.874;9.086;2022-09-29T15:59:47;2.90;;;1.67;;
289;SDS011;13193;48.874;9.086;2022-09-29T16:02:28;4.53;;;2.37;;
289;SDS011;13193;48.874;9.086;2022-09-29T16:05:09;8.70;;;2.50;;
289;SDS011;13193;48.874;9.086;2022-09-29T16:07:49;6.27;;;2.20;;
289;SDS011;13193;48.874;9.086;2022-09-29T16:10:22;5.67;;;2.37;;
289;SDS011;13193;48.874;9.086;2022-09-29T16:13:05;4.70;;;2.17;;
289;SDS011;13193;48.874;9.086;2022-09-29T16:15:43;12.93;;;2.90;;
289;SDS011;13193;48.874;9.086;2022-09-29T16:18:24;11.00;;;2.03;;
289;SDS011;13193;48.874;9.086;2022-09-29T16:20:53;5.70;;;1.90;;
289;SDS011;13193;48.874;9.086;2022-09-29T16:28:38;3.93;;;1.83;;
289;SDS011;13193;48.874;9.086;2022-09-29T16:31:25;4.90;;;1.90;;
289;SDS011;13193;48.874;9.086;2022-09-29T16:33:56;6.43;;;2.03;;
289;SDS011;13193;48.874;9.086;2022-09-29T16:39:00;7.83;;;2.20;;
289;SDS011;13193;48.874;9.086;2022-09-29T16:41:29;12.10;;;2.40;;
289;SDS011;13193;48.874;9.086;2022-09-29T16:46:58;12.53;;;3.37;;
289;SDS011;13193;48.874;9.086;2022-09-29T16:49:43;10.33;;;2.80;;
289;SDS011;13193;48.874;9.086;2022-09-29T16:52:28;4.33;;;1.90;;
289;SDS011;13193;48.874;9.086;2022-09-29T16:58:18;4.20;;;2.17;;
289;SDS011;13193;48.874;9.086;2022-09-29T17:00:44;6.30;;;2.07;;
289;SDS011;13193;48.874;9.086;2022-09-29T17:03:13;8.60;;;4.07;;
289;SDS011;13193;48.874;9.086;2022-09-29T17:05:39;14.73;;;4.23;;
289;SDS011;13193;48.874;9.086;2022-09-29T17:08:18;10.70;;;4.60;;
289;SDS011;13193;48.874;9.086;2022-09-29T17:10:47;12.77;;;4.77;;
289;SDS011;13193;48.874;9.086;2022-09-29T17:13:13;9.17;;;3.43;;
289;SDS011;13193;48.874;9.086;2022-09-29T17:15:41;8.37;;;3.70;;
289;SDS011;13193;48.874;9.086;2022-09-29T17:18:09;6.13;;;2.30;;
289;SDS011;13193;48.874;9.086;2022-09-29T17:20:36;31.97;;;9.87;;
289;SDS011;13193;48.874;9.086;2022-09-29T17:23:02;16.83;;;5.30;;
289;SDS011;13193;48.874;9.086;2022-09-29T17:25:29;22.67;;;7.10;;
289;SDS011;13193;48.874;9.086;2022-09-29T17:27:55;28.53;;;10.53;;
289;SDS011;13193;48.874;9.086;2022-09-29T17:30:45;29.80;;;9.47;;
289;SDS011;13193;48.874;9.086;2022-09-29T17:33:16;18.53;;;8.27;;
289;SDS011;13193;48.874;9.086;2022-09-29T17:35:43;27.50;;;9.53;;
289;SDS011;13193;48.874;9.086;2022-09-29T17:38:11;18.90;;;9.40;;
289;SDS011;13193;48.874;9.086;2022-09-29T17:40:43;17.23;;;8.10;;
289;SDS011;13193;48.874;9.086;2022-09-29T17:43:30;29.03;;;8.33;;
289;SDS011;13193;48.874;9.086;2022-09-29T17:45:56;12.80;;;5.63;;
289;SDS011;13193;48.874;9.086;2022-09-29T17:48:27;19.17;;;7.53;;
289;SDS011;13193;48.874;9.086;2022-09-29T17:50:53;16.60;;;8.53;;
289;SDS011;13193;48.874;9.086;2022-09-29T17:53:22;24.53;;;11.53;;
289;SDS011;13193;48.874;9.086;2022-09-29T17:55:49;17.00;;;9.10;;
289;SDS011;13193;48.874;9.086;2022-09-29T17:58:18;17.40;;;8.73;;
289;SDS011;13193;48.874;9.086;2022-09-29T18:00:45;24.93;;;9.77;;
289;SDS011;13193;48.874;9.086;2022-09-29T18:03:13;26.57;;;12.30;;
289;SDS011;13193;48.874;9.086;2022-09-29T18:05:41;19.63;;;9.57;;
289;SDS011;13193;48.874;9.086;2022-09-29T18:08:12;25.67;;;9.43;;
289;SDS011;13193;48.874;9.086;2022-09-29T18:10:40;27.10;;;9.20;;
289;SDS011;13193;48.874;9.086;2022-09-29T18:13:22;27.03;;;9.47;;
289;SDS011;13193;48.874;9.086;2022-09-29T18:15:49;18.17;;;8.03;;
289;SDS011;13193;48.874;9.086;2022-09-29T18:18:16;18.60;;;8.93;;
289;SDS011;13193;48.874;9.086;2022-09-29T18:20:44;16.90;;;7.00;;
289;SDS011;13193;48.874;9.086;2022-09-29T18:23:11;25.60;;;10.17;;
289;SDS011;13193;48.874;9.086;2022-09-29T18:25:41;21.10;;;8.60;;
289;SDS011;13193;48.874;9.086;2022-09-29T18:28:11;25.83;;;9.00;;
289;SDS011;13193;48.874;9.086;2022-09-29T18:30:39;18.97;;;11.07;;
289;SDS011;13193;48.874;9.086;2022-09-29T18:33:09;24.77;;;11.73;;
289;SDS011;13193;48.874;9.086;2022-09-29T18:35:38;15.57;;;8.10;;
289;SDS011;13193;48.874;9.086;2022-09-29T18:38:05;17.50;;;7.47;;
289;SDS011;13193;48.874;9.086;2022-09-29T18:40:32;14.87;;;6.07;;
289;SDS011;13193;48.874;9.086;2022-09-29T18:42:58;19.43;;;7.17;;
289;SDS011;13193;48.874;9.086;2022-09-29T18:45:25;18.00;;;8.70;;
289;SDS011;13193;48.874;9.086;2022-09-29T18:47:54;9.67;;;5.93;;
289;SDS011;13193;48.874;9.086;2022-09-29T18:50:35;19.60;;;7.33;;
289;SDS011;13193;48.874;9.086;2022-09-29T18:53:06;15.23;;;6.20;;
289;SDS011;13193;48.874;9.086;2022-09-29T18:55:32;18.27;;;7.20;;